AMV91A EPRZ-LZKZ
Flight info
| Callsign | AMV91A |
|---|---|
| Flight time | 0h 29m |
| Altitude | 22000 |
| Route | LUXAR DCT LENOV DCT RAZEC |
| Aircraft | A320/M-SDE3FGHIRWY/LB1 |
Departure
| Time | 2026-04-20 18:34 |
|---|---|
| Airport | Rzeszów-Jasionka Airport (EPRZ) |
Arrival
| Time | 2026-04-20 19:03 |
|---|---|
| Airport | Košice International Airport (LZKZ) |
| Time | Latitude | Longitude | Altitude | Speed | Heading |
|---|---|---|---|---|---|
| 2026-04-20 18:08 | 50.11418 | 22.02794 | 692 ft | 0 kts | 1° |
| 2026-04-20 18:23 | 50.11404 | 22.02794 | 685 ft | 4 kts | 359° |
| 2026-04-20 18:23 | 50.11377 | 22.02794 | 687 ft | 4 kts | 6° |
| 2026-04-20 18:24 | 50.11356 | 22.02789 | 684 ft | 4 kts | 15° |
| 2026-04-20 18:24 | 50.11331 | 22.02774 | 688 ft | 4 kts | 27° |
| 2026-04-20 18:24 | 50.11312 | 22.02759 | 683 ft | 4 kts | 25° |
| 2026-04-20 18:24 | 50.11287 | 22.02746 | 683 ft | 4 kts | 6° |
| 2026-04-20 18:25 | 50.11270 | 22.02744 | 685 ft | 0 kts | 1° |
| 2026-04-20 18:27 | 50.11275 | 22.02745 | 686 ft | 3 kts | 1° |
| 2026-04-20 18:27 | 50.11300 | 22.02737 | 688 ft | 6 kts | 340° |
| 2026-04-20 18:27 | 50.11321 | 22.02683 | 690 ft | 6 kts | 277° |
| 2026-04-20 18:27 | 50.11321 | 22.02668 | 690 ft | 0 kts | 269° |
| 2026-04-20 18:28 | 50.11321 | 22.02667 | 690 ft | 1 kts | 269° |
| 2026-04-20 18:28 | 50.11321 | 22.02598 | 686 ft | 11 kts | 271° |
| 2026-04-20 18:29 | 50.11323 | 22.02464 | 689 ft | 12 kts | 271° |
| 2026-04-20 18:29 | 50.11320 | 22.02349 | 688 ft | 9 kts | 253° |
| 2026-04-20 18:29 | 50.11274 | 22.02305 | 691 ft | 8 kts | 184° |
| 2026-04-20 18:29 | 50.11198 | 22.02301 | 690 ft | 12 kts | 187° |
| 2026-04-20 18:30 | 50.11156 | 22.02218 | 691 ft | 10 kts | 269° |
| 2026-04-20 18:30 | 50.11158 | 22.02070 | 693 ft | 16 kts | 271° |
| 2026-04-20 18:30 | 50.11161 | 22.01864 | 696 ft | 21 kts | 271° |
| 2026-04-20 18:30 | 50.11163 | 22.01631 | 693 ft | 21 kts | 271° |
| 2026-04-20 18:31 | 50.11167 | 22.01402 | 696 ft | 21 kts | 271° |
| 2026-04-20 18:31 | 50.11170 | 22.01166 | 700 ft | 23 kts | 271° |
| 2026-04-20 18:31 | 50.11174 | 22.00909 | 703 ft | 25 kts | 271° |
| 2026-04-20 18:31 | 50.11177 | 22.00651 | 702 ft | 23 kts | 271° |
| 2026-04-20 18:32 | 50.11180 | 22.00442 | 691 ft | 19 kts | 271° |
| 2026-04-20 18:32 | 50.11182 | 22.00242 | 696 ft | 11 kts | 264° |
| 2026-04-20 18:32 | 50.11128 | 22.00179 | 696 ft | 10 kts | 182° |
| 2026-04-20 18:32 | 50.11060 | 22.00178 | 693 ft | 10 kts | 180° |
| 2026-04-20 18:33 | 50.11019 | 22.00240 | 687 ft | 8 kts | 99° |
| 2026-04-20 18:33 | 50.11016 | 22.00427 | 691 ft | 44 kts | 91° |
| 2026-04-20 18:33 | 50.11004 | 22.01322 | 703 ft | 115 kts | 91° |
| 2026-04-20 18:33 | 50.10987 | 22.02846 | 839 ft | 156 kts | 90° |
| 2026-04-20 18:34 | 50.10963 | 22.04537 | 1507 ft | 160 kts | 92° |
| 2026-04-20 18:34 | 50.10928 | 22.06235 | 2440 ft | 155 kts | 92° |
| 2026-04-20 18:34 | 50.10887 | 22.07972 | 3052 ft | 167 kts | 92° |
| 2026-04-20 18:34 | 50.10773 | 22.09822 | 3629 ft | 179 kts | 104° |
| 2026-04-20 18:35 | 50.09987 | 22.11453 | 4095 ft | 209 kts | 144° |
| 2026-04-20 18:35 | 50.08470 | 22.12006 | 4614 ft | 245 kts | 181° |
| 2026-04-20 18:35 | 50.06800 | 22.10987 | 5189 ft | 276 kts | 217° |
| 2026-04-20 18:35 | 50.05674 | 22.08536 | 6102 ft | 286 kts | 250° |
| 2026-04-20 18:36 | 50.05303 | 22.05509 | 7152 ft | 284 kts | 266° |
| 2026-04-20 18:36 | 50.05217 | 22.02418 | 8124 ft | 288 kts | 268° |
| 2026-04-20 18:36 | 50.05147 | 21.99288 | 9138 ft | 291 kts | 269° |
| 2026-04-20 18:36 | 50.05045 | 21.96123 | 10061 ft | 296 kts | 261° |
| 2026-04-20 18:37 | 50.04368 | 21.93018 | 10520 ft | 316 kts | 238° |
| 2026-04-20 18:37 | 50.02836 | 21.90443 | 10936 ft | 333 kts | 218° |
| 2026-04-20 18:37 | 50.01037 | 21.88118 | 11735 ft | 338 kts | 219° |
| 2026-04-20 18:37 | 49.99220 | 21.85767 | 12597 ft | 342 kts | 220° |
| 2026-04-20 18:38 | 49.97386 | 21.83379 | 13481 ft | 345 kts | 221° |
| 2026-04-20 18:38 | 49.95541 | 21.80957 | 14231 ft | 349 kts | 221° |
| 2026-04-20 18:38 | 49.93677 | 21.78503 | 14937 ft | 354 kts | 222° |
| 2026-04-20 18:38 | 49.91788 | 21.76019 | 15688 ft | 356 kts | 221° |
| 2026-04-20 18:39 | 49.89898 | 21.73543 | 16461 ft | 358 kts | 221° |
| 2026-04-20 18:39 | 49.88014 | 21.71081 | 17208 ft | 360 kts | 221° |
| 2026-04-20 18:39 | 49.86066 | 21.68536 | 17969 ft | 363 kts | 221° |
| 2026-04-20 18:39 | 49.84152 | 21.66039 | 18650 ft | 365 kts | 221° |
| 2026-04-20 18:40 | 49.82201 | 21.63494 | 19284 ft | 368 kts | 221° |
| 2026-04-20 18:40 | 49.80234 | 21.60926 | 19903 ft | 371 kts | 221° |
| 2026-04-20 18:40 | 49.78251 | 21.58341 | 20536 ft | 374 kts | 221° |
| 2026-04-20 18:40 | 49.76253 | 21.55749 | 21152 ft | 376 kts | 221° |
| 2026-04-20 18:41 | 49.74244 | 21.53144 | 21767 ft | 378 kts | 221° |
| 2026-04-20 18:41 | 49.72228 | 21.50528 | 21982 ft | 379 kts | 221° |
| 2026-04-20 18:41 | 49.70238 | 21.47956 | 22018 ft | 367 kts | 221° |
| 2026-04-20 18:41 | 49.68291 | 21.45445 | 22013 ft | 363 kts | 221° |
| 2026-04-20 18:42 | 49.66363 | 21.42952 | 22011 ft | 361 kts | 221° |
| 2026-04-20 18:42 | 49.64435 | 21.40461 | 22013 ft | 361 kts | 221° |
| 2026-04-20 18:42 | 49.62505 | 21.37972 | 22013 ft | 362 kts | 221° |
| 2026-04-20 18:42 | 49.60571 | 21.35484 | 22010 ft | 362 kts | 221° |
| 2026-04-20 18:43 | 49.58642 | 21.33003 | 22010 ft | 361 kts | 221° |
| 2026-04-20 18:43 | 49.56717 | 21.30519 | 22008 ft | 361 kts | 222° |
| 2026-04-20 18:43 | 49.54798 | 21.28042 | 22011 ft | 361 kts | 221° |
| 2026-04-20 18:43 | 49.52870 | 21.25559 | 22016 ft | 361 kts | 221° |
| 2026-04-20 18:44 | 49.50941 | 21.23081 | 22023 ft | 361 kts | 222° |
| 2026-04-20 18:44 | 49.49013 | 21.20608 | 22028 ft | 361 kts | 221° |
| 2026-04-20 18:44 | 49.47084 | 21.18138 | 22028 ft | 361 kts | 221° |
| 2026-04-20 18:44 | 49.45155 | 21.15677 | 22021 ft | 361 kts | 221° |
| 2026-04-20 18:45 | 49.43219 | 21.13216 | 22021 ft | 361 kts | 221° |
| 2026-04-20 18:45 | 49.41294 | 21.10773 | 21860 ft | 355 kts | 221° |
| 2026-04-20 18:45 | 49.39412 | 21.08384 | 21593 ft | 348 kts | 221° |
| 2026-04-20 18:45 | 49.37581 | 21.06055 | 21326 ft | 345 kts | 221° |
| 2026-04-20 18:46 | 49.35564 | 21.03984 | 21043 ft | 344 kts | 208° |
| 2026-04-20 18:46 | 49.33355 | 21.02751 | 20628 ft | 343 kts | 194° |
| 2026-04-20 18:46 | 49.30983 | 21.02369 | 20170 ft | 345 kts | 180° |
| 2026-04-20 18:46 | 49.28607 | 21.02868 | 19699 ft | 346 kts | 168° |
| 2026-04-20 18:47 | 49.26270 | 21.03738 | 19250 ft | 345 kts | 168° |
| 2026-04-20 18:47 | 49.23935 | 21.04599 | 18803 ft | 345 kts | 169° |
| 2026-04-20 18:47 | 49.21607 | 21.05453 | 18355 ft | 345 kts | 169° |
| 2026-04-20 18:47 | 49.19274 | 21.06301 | 17856 ft | 344 kts | 168° |
| 2026-04-20 18:48 | 49.16953 | 21.07145 | 17423 ft | 342 kts | 168° |
| 2026-04-20 18:48 | 49.14643 | 21.07985 | 16978 ft | 340 kts | 168° |
| 2026-04-20 18:48 | 49.12346 | 21.08820 | 16559 ft | 339 kts | 168° |
| 2026-04-20 18:48 | 49.10059 | 21.09655 | 16145 ft | 337 kts | 168° |
| 2026-04-20 18:49 | 49.07785 | 21.10490 | 15736 ft | 335 kts | 168° |
| 2026-04-20 18:49 | 49.05522 | 21.11324 | 15331 ft | 334 kts | 168° |
| 2026-04-20 18:49 | 49.03269 | 21.12148 | 14935 ft | 333 kts | 168° |
| 2026-04-20 18:49 | 49.01021 | 21.12966 | 14530 ft | 332 kts | 168° |
| 2026-04-20 18:50 | 48.98775 | 21.13783 | 14129 ft | 331 kts | 169° |
| 2026-04-20 18:50 | 48.96509 | 21.14282 | 13722 ft | 328 kts | 180° |
| 2026-04-20 18:50 | 48.94235 | 21.14341 | 13296 ft | 326 kts | 181° |
| 2026-04-20 18:50 | 48.91979 | 21.14404 | 12898 ft | 323 kts | 181° |
| 2026-04-20 18:51 | 48.89765 | 21.14475 | 12490 ft | 321 kts | 181° |
| 2026-04-20 18:51 | 48.87536 | 21.14552 | 12104 ft | 319 kts | 181° |
| 2026-04-20 18:51 | 48.85346 | 21.14628 | 11955 ft | 310 kts | 182° |
| 2026-04-20 18:51 | 48.83229 | 21.14502 | 11546 ft | 300 kts | 192° |
| 2026-04-20 18:52 | 48.81208 | 21.13841 | 10951 ft | 294 kts | 197° |
| 2026-04-20 18:52 | 48.79238 | 21.13141 | 10552 ft | 290 kts | 197° |
| 2026-04-20 18:52 | 48.77271 | 21.12449 | 10166 ft | 291 kts | 197° |
| 2026-04-20 18:52 | 48.75305 | 21.11761 | 9801 ft | 290 kts | 197° |
| 2026-04-20 18:53 | 48.73341 | 21.11077 | 9370 ft | 289 kts | 197° |
| 2026-04-20 18:53 | 48.71380 | 21.10394 | 8967 ft | 288 kts | 197° |
| 2026-04-20 18:53 | 48.69427 | 21.09718 | 8558 ft | 288 kts | 196° |
| 2026-04-20 18:53 | 48.67479 | 21.09045 | 8153 ft | 286 kts | 195° |
| 2026-04-20 18:54 | 48.65540 | 21.08375 | 7733 ft | 285 kts | 195° |
| 2026-04-20 18:54 | 48.63604 | 21.07707 | 7313 ft | 285 kts | 195° |
| 2026-04-20 18:54 | 48.61671 | 21.07039 | 6891 ft | 285 kts | 195° |
| 2026-04-20 18:54 | 48.59738 | 21.06370 | 6454 ft | 285 kts | 195° |
| 2026-04-20 18:55 | 48.57805 | 21.05703 | 6003 ft | 285 kts | 195° |
| 2026-04-20 18:55 | 48.55877 | 21.05039 | 5544 ft | 284 kts | 195° |
| 2026-04-20 18:55 | 48.53947 | 21.04372 | 5094 ft | 284 kts | 195° |
| 2026-04-20 18:55 | 48.52029 | 21.03710 | 4818 ft | 277 kts | 195° |
| 2026-04-20 18:56 | 48.50200 | 21.03083 | 4737 ft | 262 kts | 195° |
| 2026-04-20 18:56 | 48.48431 | 21.02839 | 4362 ft | 259 kts | 167° |
| 2026-04-20 18:56 | 48.46968 | 21.04075 | 4257 ft | 232 kts | 126° |
| 2026-04-20 18:56 | 48.46118 | 21.06081 | 4203 ft | 223 kts | 116° |
| 2026-04-20 18:57 | 48.45418 | 21.08106 | 4044 ft | 214 kts | 102° |
| 2026-04-20 18:57 | 48.45313 | 21.10273 | 3934 ft | 205 kts | 75° |
| 2026-04-20 18:57 | 48.45840 | 21.12217 | 3892 ft | 199 kts | 52° |
| 2026-04-20 18:57 | 48.46575 | 21.13993 | 3849 ft | 200 kts | 53° |
| 2026-04-20 18:58 | 48.47306 | 21.15780 | 3807 ft | 201 kts | 53° |
| 2026-04-20 18:58 | 48.48205 | 21.17340 | 3755 ft | 195 kts | 33° |
| 2026-04-20 18:58 | 48.49402 | 21.18231 | 3708 ft | 191 kts | 12° |
| 2026-04-20 18:58 | 48.50684 | 21.18677 | 3612 ft | 186 kts | 11° |
| 2026-04-20 18:59 | 48.51937 | 21.19110 | 3429 ft | 184 kts | 11° |
| 2026-04-20 18:59 | 48.53162 | 21.19535 | 3201 ft | 178 kts | 11° |
| 2026-04-20 18:59 | 48.54341 | 21.19945 | 2982 ft | 168 kts | 12° |
| 2026-04-20 18:59 | 48.55433 | 21.20325 | 2760 ft | 154 kts | 12° |
| 2026-04-20 19:00 | 48.56430 | 21.20672 | 2561 ft | 141 kts | 13° |
| 2026-04-20 19:00 | 48.57367 | 21.20998 | 2356 ft | 136 kts | 13° |
| 2026-04-20 19:00 | 48.58276 | 21.21315 | 2169 ft | 134 kts | 13° |
| 2026-04-20 19:00 | 48.59178 | 21.21628 | 1985 ft | 133 kts | 13° |
| 2026-04-20 19:01 | 48.60077 | 21.21943 | 1781 ft | 132 kts | 14° |
| 2026-04-20 19:01 | 48.60974 | 21.22259 | 1542 ft | 133 kts | 14° |
| 2026-04-20 19:01 | 48.61867 | 21.22570 | 1357 ft | 131 kts | 13° |
| 2026-04-20 19:01 | 48.62743 | 21.22881 | 1167 ft | 132 kts | 14° |
| 2026-04-20 19:02 | 48.63636 | 21.23186 | 1000 ft | 132 kts | 14° |
| 2026-04-20 19:02 | 48.64524 | 21.23500 | 899 ft | 132 kts | 14° |
| 2026-04-20 19:02 | 48.65413 | 21.23813 | 762 ft | 124 kts | 12° |
| 2026-04-20 19:02 | 48.66123 | 21.24055 | 755 ft | 81 kts | 13° |
| 2026-04-20 19:03 | 48.66497 | 21.24186 | 754 ft | 34 kts | 13° |
| 2026-04-20 19:03 | 48.66710 | 21.24261 | 760 ft | 29 kts | 13° |
| 2026-04-20 19:03 | 48.66907 | 21.24329 | 761 ft | 29 kts | 13° |
| 2026-04-20 19:03 | 48.67102 | 21.24397 | 760 ft | 25 kts | 13° |
| 2026-04-20 19:04 | 48.67206 | 21.24415 | 755 ft | 11 kts | 339° |
| 2026-04-20 19:04 | 48.67244 | 21.24310 | 756 ft | 12 kts | 284° |
| 2026-04-20 19:04 | 48.67263 | 21.24194 | 753 ft | 11 kts | 283° |
| 2026-04-20 19:04 | 48.67279 | 21.24088 | 756 ft | 10 kts | 283° |
| 2026-04-20 19:05 | 48.67294 | 21.23992 | 755 ft | 9 kts | 283° |
| 2026-04-20 19:05 | 48.67314 | 21.23917 | 755 ft | 7 kts | 315° |
| 2026-04-20 19:05 | 48.67339 | 21.23885 | 757 ft | 3 kts | 301° |
| 2026-04-20 19:05 | 48.67336 | 21.23864 | 755 ft | 2 kts | 245° |
| 2026-04-20 19:06 | 48.67332 | 21.23852 | 754 ft | 1 kts | 239° |
| 2026-04-20 19:06 | 48.67329 | 21.23846 | 753 ft | 0 kts | 237° |